Jyväskylä Airport

EFJY · Central Finland, 芬兰

罗盘
风向 的 风向 的 风向 到 风向 110° Jyväskylä Airport 12/30
风: 8 kt, 3 beaufort

7 kt

3 kt
改变
0 ft 1.000 2.000 3.000 4.000 5.000
Cloud Cloud
FEW 4.500
METAR EFJY 221050Z AUTO 11008KT 070V140 9999 FEW045 25/14 Q1016

METAR Jyväskylä Airport - EFJY/JYV

Jyväskylä Airport是,芬兰中的中型机场。 该机场位于纬度62,39950和经度25,67830。 该机场有一条跑道: 12/30. 本场的ICAO机场代码为EFJY。 该机场的IATA代码为JYV。 机场在Finland FIR中。

该航空气象观测是针对Jyväskylä Airport在2024年7月22日 13:50, 当地时间进行的。

机场观察

风向为110°,速度为8 kt。 风向在070°和140°之间变化。

可见度为10 km 或者更多。

有几云在4.500 ft的高度。 没有观察到天花板。

温度和风寒是25 °C。 露点为14 °C,相对湿度为51%。 海平面上的气压为1016 hPa (QNH)。

白天

今天,太阳从04:14升起,在22:32降落。 这适用于Jyväskylä Airport,世界夏令时可能有所不同。 当地时间与世界标准时间之间的时差为+3 小时。 夏令时目前正在进行中。

公司介绍

在这个机场,你可以找到跳伞中心。 本场上唯一已知的公司是Skydive Jyväskylä。

体会

到Vliegles.nl去找飞行课程,跳伞和其他飞行体验。 浏览页面,了解Jyväskylä Airport附近所有可用的活动。 你也可以使用搜索功能来寻找你所在地附近的特定飞行课程、跳伞或其他飞行体验。

跑道

Id 标题 侧风 逆风 侧风 %
12/30 134°-314° 3 kt 7 kt 41 %

逆风成分最大的方向会被突出显示,并用于横风计算。 这并不一定意味着这个方向在使用。

乌云

4.500 ft FEW 几云

温度 & 天气

温度 25 °C
露点 14 °C
相对湿度 51%
Kp-index 2 (0-9)

白天

日出
04:14
中午
13:23
日落
22:32 (8:26)

小工具

你想在你的网站上有一个关于Jyväskylä Airport的当前航空天气(METAR)的小部件吗?

显示HTML代码
报告变更